This is the latest recevied weather packets stored in our database for station/object KJ5IMV-13. If no packets are shown the sender has not sent any weather packets the latest 10 day(s).
| Time | Temp. | Humidity | Pressure | Rain* | Wind** | Luminosity | Snow |
|---|---|---|---|---|---|---|---|
| 1787717516 | 29.44° C | 80% | 1010.6 hPa | - | - | - | - |
| 1787706968 | 32.78° C | 70% | 1008.8 hPa | - | - | - | - |
| 1787706365 | 33.33° C | 69% | 1008.6 hPa | - | - | - | - |
| 1787704858 | 33.33° C | 70% | 1008.5 hPa | - | - | - | - |
| 1787704556 | 33.33° C | 70% | 1008.4 hPa | - | - | - | - |
| 1787699433 | 36.67° C | 59% | 1008.4 hPa | - | - | - | - |
| 1787689486 | 36.11° C | 59% | 1009.7 hPa | - | - | - | - |
| 1787687677 | 36.11° C | 62% | 1010.2 hPa | - | - | - | - |
| 1787684363 | 34.44° C | 65% | 1010.9 hPa | - | - | - | - |
| 1787679539 | 33.33° C | 70% | 1011.9 hPa | - | - | - | - |
| 1787678032 | 33.89° C | 72% | 1012.2 hPa | - | - | - | - |
| 1787675922 | 32.78° C | 75% | 1012.8 hPa | - | - | - | - |
| 1787674717 | 32.78° C | 76% | 1012.8 hPa | - | - | - | - |
| 1787674112 | 32.22° C | 79% | 1012.7 hPa | - | - | - | - |
| 1787672907 | 31.67° C | 82% | 1012.6 hPa | - | - | - | - |
| 1787671400 | 30.56° C | 86% | 1012.1 hPa | - | - | - | - |
| 1787671098 | 30° C | 87% | 1012.1 hPa | - | - | - | - |
| 1787670496 | 30° C | 87% | 1012.4 hPa | - | - | - | - |
| 1787667482 | 29.44° C | 91% | 1012 hPa | - | - | - | - |
| 1787665371 | 28.33° C | 95% | 1012 hPa | - | - | - | - |
| 1787597829 | 36.67° C | 64% | 1010.1 hPa | - | - | - | - |
| 1787596009 | 35.56° C | 63% | 1010.6 hPa | - | - | - | - |
| 1787595098 | 35.56° C | 66% | 1011 hPa | - | - | - | - |
| 1787594796 | 35.56° C | 63% | 1011.2 hPa | - | - | - | - |
| 1787593278 | 35° C | 71% | 1011.2 hPa | - | - | - | - |
* Rain since midnight (hover to see other rain measurements)
** Current wind speed in m/s (hover to see current wind gust speed)